Terminal Aerodrome Forecast
Issued by NWS Rapid City, SD

Home | Current Version | Previous Version | Text Only | Print | Product List | Glossary Off
Versions: 1 2 3 4 5 6 7 8 9 10 11 12 13 14 15 16

000
FTUS43 KUNR 181700
TAFRAP
TAF
KRAP 181720Z 1818/1918 17016KT P6SM BKN250
     FM182000 20020G30KT P6SM BKN200
     FM190200 34018KT P6SM SCT120 OVC250
     FM191000 33009KT P6SM SKC=

USA.gov is the U.S. government's official web portal to all federal, state and local government web resources and services.